createdAt,value
2023-04-03T00:00:55.131Z,99.99
2023-04-03T00:03:52.788Z,99.99
2023-04-03T00:04:52.601Z,99.99
2023-04-03T00:05:52.556Z,99.99
2023-04-03T00:06:52.540Z,99.99
2023-04-03T00:07:52.448Z,99.99
2023-04-03T00:08:52.436Z,99.99
2023-04-03T00:09:52.359Z,99.99
2023-04-03T00:10:52.321Z,99.99
2023-04-03T00:11:52.267Z,99.99
2023-04-03T00:12:52.212Z,99.99
2023-04-03T00:13:52.164Z,99.99
2023-04-03T00:14:52.157Z,99.99
2023-04-03T00:15:52.089Z,99.99
2023-04-03T00:16:52.053Z,99.99
2023-04-03T00:17:51.999Z,99.99
2023-04-03T00:18:51.944Z,99.99
2023-04-03T00:19:51.912Z,99.99
2023-04-03T00:20:51.845Z,99.99
2023-04-03T00:21:51.808Z,99.99
2023-04-03T00:22:51.758Z,99.99
2023-04-03T00:23:51.737Z,99.99
2023-04-03T00:24:51.681Z,99.99
2023-04-03T00:25:51.619Z,99.99
2023-04-03T00:26:51.571Z,99.99
2023-04-03T00:27:51.533Z,99.99
2023-04-03T00:28:51.467Z,99.99
2023-04-03T00:29:51.438Z,99.99
2023-04-03T00:30:51.615Z,99.99
2023-04-03T00:31:51.342Z,99.99
2023-04-03T00:32:51.286Z,99.99
2023-04-03T00:33:51.254Z,99.99
2023-04-03T00:34:51.208Z,99.99
2023-04-03T00:35:51.279Z,99.99
2023-04-03T00:36:51.183Z,99.99
2023-04-03T00:37:51.051Z,99.99
2023-04-03T00:38:51.045Z,99.99
2023-04-03T00:39:50.974Z,99.99
2023-04-03T00:40:50.969Z,99.99
2023-04-03T00:41:50.886Z,99.99
2023-04-03T00:42:51.573Z,99.99
2023-04-03T00:43:50.764Z,99.99
2023-04-03T00:44:50.726Z,99.99
2023-04-03T00:45:50.766Z,99.99
2023-04-03T00:46:50.667Z,99.99
2023-04-03T00:47:50.632Z,99.99
2023-04-03T00:48:50.550Z,99.99
2023-04-03T00:49:50.504Z,99.99
2023-04-03T00:50:50.454Z,99.99
2023-04-03T00:51:50.413Z,99.99
2023-04-03T00:52:50.366Z,99.99
2023-04-03T00:53:50.327Z,99.99
2023-04-03T00:54:50.271Z,99.99
2023-04-03T00:55:50.249Z,99.99
2023-04-03T00:56:50.244Z,99.99
2023-04-03T00:57:50.138Z,99.99
2023-04-03T00:58:50.134Z,99.99
2023-04-03T00:59:50.060Z,99.99
2023-04-03T01:00:50.017Z,99.99
2023-04-03T01:01:49.988Z,99.99
2023-04-03T01:02:49.947Z,99.99
2023-04-03T01:03:49.930Z,99.99
2023-04-03T01:04:49.848Z,99.99
2023-04-03T01:05:49.791Z,99.99
2023-04-03T01:06:49.719Z,99.99
2023-04-03T01:07:49.682Z,99.99
2023-04-03T01:08:49.620Z,99.99
2023-04-03T01:09:49.610Z,99.99
2023-04-03T01:10:49.526Z,99.99
2023-04-03T01:11:49.512Z,99.99
2023-04-03T01:12:49.446Z,99.99
2023-04-03T01:13:49.455Z,99.99
2023-04-03T01:14:49.349Z,99.99
2023-04-03T01:15:49.378Z,99.99
2023-04-03T01:16:49.268Z,99.99
2023-04-03T01:17:49.239Z,99.99
2023-04-03T01:18:49.168Z,99.99
2023-04-03T01:19:49.128Z,99.99
2023-04-03T01:20:49.097Z,99.99
2023-04-03T01:21:49.035Z,99.99
2023-04-03T01:22:48.984Z,99.99
2023-04-03T01:23:48.924Z,99.99
2023-04-03T01:24:48.889Z,99.99
2023-04-03T01:25:48.872Z,99.99
2023-04-03T01:26:48.803Z,99.99
2023-04-03T01:27:48.745Z,99.99
2023-04-03T01:28:48.722Z,99.99
2023-04-03T01:29:48.654Z,99.99
2023-04-03T01:30:48.625Z,99.99
2023-04-03T01:31:48.649Z,99.99
2023-04-03T01:32:48.566Z,99.99
2023-04-03T01:33:48.464Z,99.99
2023-04-03T01:34:48.417Z,99.99
2023-04-03T01:35:48.400Z,99.99
2023-04-03T01:36:48.349Z,99.99
2023-04-03T01:37:48.294Z,99.99
2023-04-03T01:38:48.251Z,99.99
2023-04-03T01:39:48.185Z,99.99
2023-04-03T01:40:48.158Z,99.99
2023-04-03T01:41:48.111Z,99.99
2023-04-03T01:42:48.054Z,99.99
2023-04-03T01:43:48.053Z,99.99
2023-04-03T01:44:47.966Z,99.99
2023-04-03T01:45:47.988Z,99.99
2023-04-03T01:46:47.886Z,99.99
2023-04-03T01:47:47.885Z,99.99
2023-04-03T01:48:47.794Z,99.99
2023-04-03T01:49:47.721Z,99.99
2023-04-03T01:50:47.687Z,99.99
2023-04-03T01:51:47.632Z,99.99
2023-04-03T01:52:47.580Z,99.99
2023-04-03T01:53:47.590Z,99.99
2023-04-03T01:54:47.488Z,99.99
2023-04-03T01:55:47.447Z,99.99
2023-04-03T01:56:47.406Z,99.99
2023-04-03T01:57:47.370Z,99.99
2023-04-03T01:58:47.320Z,99.99
2023-04-03T01:59:47.282Z,99.99
2023-04-03T02:00:47.277Z,99.99
2023-04-03T02:01:47.188Z,99.99
2023-04-03T02:02:47.135Z,99.99
2023-04-03T02:03:47.105Z,99.99
2023-04-03T02:04:47.038Z,99.99
2023-04-03T02:05:47.003Z,99.99
2023-04-03T02:06:46.953Z,99.99
2023-04-03T02:07:46.894Z,99.99
2023-04-03T02:08:46.847Z,99.99
2023-04-03T02:09:46.798Z,99.99
2023-04-03T02:10:46.747Z,99.99
2023-04-03T02:11:46.718Z,99.99
2023-04-03T02:12:46.670Z,99.99
2023-04-03T02:13:46.606Z,99.99
2023-04-03T02:14:46.572Z,99.99
2023-04-03T02:15:46.513Z,99.99
2023-04-03T02:16:46.518Z,99.99
2023-04-03T02:17:46.480Z,99.99
2023-04-03T02:18:46.428Z,99.99
2023-04-03T02:19:46.341Z,99.99
2023-04-03T02:20:46.291Z,99.99
2023-04-03T02:21:46.255Z,99.99
2023-04-03T02:22:46.268Z,99.99
2023-04-03T02:23:46.207Z,99.99
2023-04-03T02:24:46.118Z,99.99
2023-04-03T02:25:46.061Z,99.99
2023-04-03T02:26:46.032Z,99.99
2023-04-03T02:27:46.003Z,99.99
2023-04-03T02:28:45.920Z,99.99
2023-04-03T02:29:46.714Z,99.99
2023-04-03T02:30:45.863Z,99.99
2023-04-03T02:31:45.782Z,99.99
2023-04-03T02:32:45.876Z,99.99
2023-04-03T02:33:45.679Z,99.99
2023-04-03T02:34:45.659Z,99.99
2023-04-03T02:35:45.617Z,99.99
2023-04-03T02:36:45.537Z,99.99
2023-04-03T02:37:45.500Z,99.99
2023-04-03T02:38:45.448Z,99.99
2023-04-03T02:39:45.403Z,99.99
2023-04-03T02:40:45.361Z,99.99
2023-04-03T02:41:45.328Z,99.50
2023-04-03T02:42:45.270Z,99.29
2023-04-03T02:43:45.264Z,99.50
2023-04-03T02:44:45.182Z,99.29
2023-04-03T02:45:45.153Z,99.50
2023-04-03T02:46:45.099Z,99.66
2023-04-03T02:47:45.088Z,99.44
2023-04-03T02:48:45.000Z,99.54
2023-04-03T02:49:44.982Z,99.99
2023-04-03T02:50:44.937Z,99.91
2023-04-03T02:51:44.871Z,99.50
2023-04-03T02:52:44.824Z,99.40
2023-04-03T02:53:44.782Z,99.44
2023-04-03T02:54:44.733Z,99.65
2023-04-03T02:55:44.705Z,99.54
2023-04-03T02:56:44.636Z,99.99
2023-04-03T02:57:44.638Z,99.99
2023-04-03T02:58:44.544Z,99.65
2023-04-03T02:59:44.507Z,99.13
2023-04-03T03:00:44.454Z,99.40
2023-04-03T03:01:44.460Z,99.33
2023-04-03T03:02:44.400Z,99.54
2023-04-03T03:03:44.324Z,99.44
2023-04-03T03:04:44.307Z,99.33
2023-04-03T03:05:44.256Z,99.33
2023-04-03T03:06:45.044Z,99.18
2023-04-03T03:07:44.151Z,99.50
2023-04-03T03:08:44.084Z,99.65
2023-04-03T03:09:44.062Z,99.60
2023-04-03T03:10:44.003Z,99.29
2023-04-03T03:11:43.961Z,98.77
2023-04-03T03:12:43.897Z,98.35
2023-04-03T03:13:43.894Z,98.56
2023-04-03T03:14:43.832Z,98.56
2023-04-03T03:15:43.858Z,98.56
2023-04-03T03:16:43.732Z,98.56
2023-04-03T03:17:43.754Z,97.83
2023-04-03T03:18:43.632Z,98.87
2023-04-03T03:19:43.575Z,97.94
2023-04-03T03:20:43.541Z,98.25
2023-04-03T03:21:43.487Z,98.04
2023-04-03T03:22:43.447Z,97.72
2023-04-03T03:23:43.427Z,98.56
2023-04-03T03:24:43.350Z,97.94
2023-04-03T03:25:43.332Z,98.04
2023-04-03T03:26:43.302Z,97.83
2023-04-03T03:27:43.246Z,97.31
2023-04-03T03:28:43.182Z,97.52
2023-04-03T03:29:43.162Z,97.78
2023-04-03T03:30:43.084Z,96.69
2023-04-03T03:31:43.078Z,97.31
2023-04-03T03:32:43.030Z,97.16
2023-04-03T03:33:42.962Z,96.79
2023-04-03T03:34:42.883Z,97.16
2023-04-03T03:35:42.905Z,96.85
2023-04-03T03:36:42.812Z,96.75
2023-04-03T03:37:42.760Z,97.06
2023-04-03T03:38:42.708Z,96.33
2023-04-03T03:39:42.697Z,96.33
2023-04-03T03:40:42.622Z,96.95
2023-04-03T03:41:42.570Z,96.43
2023-04-03T03:42:42.531Z,97.06
2023-04-03T03:43:42.493Z,96.53
2023-04-03T03:44:42.435Z,96.12
2023-04-03T03:45:42.401Z,96.16
2023-04-03T03:46:42.474Z,95.60
2023-04-03T03:47:42.311Z,95.29
2023-04-03T03:48:42.241Z,95.60
2023-04-03T03:49:42.250Z,95.70
2023-04-03T03:50:42.157Z,96.22
2023-04-03T03:51:42.129Z,96.43
2023-04-03T03:52:42.087Z,96.22
2023-04-03T03:53:42.029Z,96.26
2023-04-03T03:54:41.982Z,95.81
2023-04-03T03:55:41.937Z,95.29
2023-04-03T03:56:41.903Z,95.50
2023-04-03T03:57:41.851Z,95.50
2023-04-03T03:58:41.843Z,95.60
2023-04-03T03:59:41.765Z,95.81
2023-04-03T04:00:41.720Z,95.39
2023-04-03T04:01:41.696Z,95.60
2023-04-03T04:02:41.740Z,95.70
2023-04-03T04:03:41.614Z,94.76
2023-04-03T04:04:41.542Z,95.02
2023-04-03T04:05:41.495Z,94.98
2023-04-03T04:06:41.441Z,95.18
2023-04-03T04:07:41.388Z,94.87
2023-04-03T04:08:41.342Z,94.92
2023-04-03T04:09:41.332Z,94.56
2023-04-03T04:10:41.277Z,94.87
2023-04-03T04:11:41.220Z,95.29
2023-04-03T04:12:41.165Z,94.56
2023-04-03T04:13:41.141Z,95.23
2023-04-03T04:14:41.080Z,95.12
2023-04-03T04:15:41.298Z,94.92
2023-04-03T04:16:41.070Z,95.64
2023-04-03T04:17:40.932Z,95.39
2023-04-03T04:18:40.874Z,95.23
2023-04-03T04:19:40.860Z,95.54
2023-04-03T04:20:40.787Z,95.12
2023-04-03T04:21:40.752Z,95.43
2023-04-03T04:22:40.701Z,95.54
2023-04-03T04:23:40.688Z,95.54
2023-04-03T04:24:40.626Z,94.92
2023-04-03T04:25:40.562Z,95.02
2023-04-03T04:26:40.514Z,95.02
2023-04-03T04:27:40.487Z,95.33
2023-04-03T04:28:40.435Z,95.23
2023-04-03T04:29:40.385Z,95.02
2023-04-03T04:30:40.357Z,95.12
2023-04-03T04:31:40.294Z,95.12
2023-04-03T04:32:40.255Z,95.18
2023-04-03T04:33:40.194Z,95.33
2023-04-03T04:34:40.206Z,94.81
2023-04-03T04:35:40.430Z,95.23
2023-04-03T04:36:40.117Z,95.85
2023-04-03T04:37:40.008Z,95.43
2023-04-03T04:38:39.975Z,95.02
2023-04-03T04:39:39.946Z,95.43
2023-04-03T04:40:39.880Z,95.85
2023-04-03T04:41:39.851Z,95.64
2023-04-03T04:42:39.762Z,95.89
2023-04-03T04:43:39.734Z,95.54
2023-04-03T04:44:39.674Z,95.54
2023-04-03T04:45:39.946Z,95.23
2023-04-03T04:46:39.654Z,94.81
2023-04-03T04:47:39.712Z,94.92
2023-04-03T04:48:39.839Z,95.08
2023-04-03T04:49:39.479Z,94.70
2023-04-03T04:50:39.408Z,94.14
2023-04-03T04:51:50.909Z,94.45
2023-04-03T04:52:39.311Z,94.66
2023-04-03T04:53:39.291Z,94.56
2023-04-03T04:54:39.236Z,94.35
2023-04-03T04:55:39.326Z,95.64
2023-04-03T04:56:39.144Z,95.29
2023-04-03T04:57:39.192Z,94.87
2023-04-03T04:58:39.081Z,95.08
2023-04-03T04:59:39.000Z,94.70
2023-04-03T05:00:38.956Z,95.08
2023-04-03T05:01:38.945Z,94.92
2023-04-03T05:02:38.905Z,95.18
2023-04-03T05:03:38.804Z,94.29
2023-04-03T05:04:38.802Z,94.87
2023-04-03T05:05:39.158Z,94.45
2023-04-03T05:06:38.674Z,94.45
2023-04-03T05:07:38.652Z,94.45
2023-04-03T05:08:38.602Z,93.98
2023-04-03T05:09:38.576Z,94.45
2023-04-03T05:10:38.497Z,94.76
2023-04-03T05:11:38.443Z,94.39
2023-04-03T05:12:38.405Z,94.60
2023-04-03T05:13:38.368Z,95.02
2023-04-03T05:14:38.327Z,94.70
2023-04-03T05:15:38.662Z,94.49
2023-04-03T05:16:38.345Z,94.81
2023-04-03T05:17:38.241Z,94.81
2023-04-03T05:18:38.141Z,95.02
2023-04-03T05:19:38.105Z,95.33
2023-04-03T05:20:38.084Z,95.02
2023-04-03T05:21:38.006Z,94.92
2023-04-03T05:22:37.944Z,95.12
2023-04-03T05:23:37.900Z,94.70
2023-04-03T05:24:37.862Z,95.06
2023-04-03T05:25:38.162Z,95.43
2023-04-03T05:26:37.773Z,94.92
2023-04-03T05:27:37.762Z,95.23
2023-04-03T05:28:37.678Z,95.02
2023-04-03T05:29:37.647Z,94.92
2023-04-03T05:30:37.580Z,95.12
2023-04-03T05:31:37.574Z,94.92
2023-04-03T05:32:37.519Z,94.92
2023-04-03T05:33:37.452Z,95.12
2023-04-03T05:34:37.403Z,94.92
2023-04-03T05:35:37.491Z,94.39
2023-04-03T05:36:37.313Z,94.87
2023-04-03T05:37:37.269Z,95.02
2023-04-03T05:38:37.228Z,95.43
2023-04-03T05:39:37.193Z,95.23
2023-04-03T05:40:37.148Z,95.23
2023-04-03T05:41:37.088Z,95.33
2023-04-03T05:42:37.033Z,95.23
2023-04-03T05:43:36.970Z,95.02
2023-04-03T05:44:36.939Z,94.70
2023-04-03T05:45:36.922Z,94.39
2023-04-03T05:46:36.850Z,94.81
2023-04-03T05:47:36.859Z,95.12
2023-04-03T05:48:36.745Z,95.23
2023-04-03T05:49:36.693Z,94.29
2023-04-03T05:50:36.700Z,94.92
2023-04-03T05:51:36.664Z,95.33
2023-04-03T05:52:36.574Z,95.33
2023-04-03T05:53:36.528Z,94.29
2023-04-03T05:54:36.475Z,95.12
2023-04-03T05:55:36.669Z,95.12
2023-04-03T05:56:36.406Z,95.23
2023-04-03T05:57:36.462Z,95.02
2023-04-03T05:58:36.297Z,95.12
2023-04-03T05:59:36.235Z,95.54
2023-04-03T06:00:36.182Z,94.81
2023-04-03T06:01:36.149Z,95.33
2023-04-03T06:02:36.199Z,94.81
2023-04-03T06:03:38.614Z,95.18
2023-04-03T06:04:36.095Z,95.08
2023-04-03T06:05:36.138Z,94.41
2023-04-03T06:06:35.909Z,93.20
2023-04-03T06:07:35.881Z,92.14
2023-04-03T06:08:35.824Z,87.59
2023-04-03T06:09:35.779Z,85.75
2023-04-03T06:10:35.931Z,84.12
2023-04-03T06:11:35.689Z,82.18
2023-04-03T06:12:35.653Z,80.66
2023-04-03T06:13:35.603Z,78.56
2023-04-03T06:14:35.546Z,78.14
2023-04-03T06:15:35.514Z,78.05
2023-04-03T06:16:38.102Z,77.84
2023-04-03T06:17:35.456Z,77.04
2023-04-03T06:18:35.386Z,77.28
2023-04-03T06:19:35.335Z,76.63
2023-04-03T06:20:35.366Z,76.46
2023-04-03T06:21:35.258Z,75.98
2023-04-03T06:22:35.210Z,75.81
2023-04-03T06:23:37.755Z,75.43
2023-04-03T06:24:35.136Z,74.88
2023-04-03T06:25:35.092Z,74.77
2023-04-03T06:26:35.043Z,73.64
2023-04-03T06:27:35.007Z,73.91
2023-04-03T06:28:34.956Z,73.71
2023-04-03T06:29:34.920Z,75.36
2023-04-03T06:30:34.888Z,74.08
2023-04-03T06:31:35.156Z,73.91
2023-04-03T06:32:34.820Z,74.43
2023-04-03T06:33:34.756Z,72.99
2023-04-03T06:34:34.718Z,71.75
2023-04-03T06:35:34.688Z,72.68
2023-04-03T06:36:34.659Z,71.69
2023-04-03T06:37:34.623Z,70.90
2023-04-03T06:38:34.544Z,70.11
2023-04-03T06:39:34.511Z,70.08
2023-04-03T06:40:34.466Z,70.70
2023-04-03T06:41:35.371Z,69.81
2023-04-03T06:42:34.401Z,68.54
2023-04-03T06:43:34.587Z,69.23
2023-04-03T06:44:34.305Z,68.81
2023-04-03T06:45:34.268Z,69.23
2023-04-03T06:46:34.252Z,68.71
2023-04-03T06:47:34.232Z,70.15
2023-04-03T06:48:34.157Z,68.51
2023-04-03T06:49:34.137Z,68.72
2023-04-03T06:50:34.084Z,67.46
2023-04-03T06:51:34.053Z,65.71
2023-04-03T06:52:34.003Z,65.84
2023-04-03T06:53:33.986Z,66.67
2023-04-03T06:54:33.913Z,66.12
2023-04-03T06:55:33.888Z,65.04
2023-04-03T06:56:33.947Z,64.12
2023-04-03T06:57:33.895Z,65.07
2023-04-03T06:58:33.762Z,65.95
2023-04-03T06:59:33.736Z,66.60
2023-04-03T07:00:33.683Z,64.38
2023-04-03T07:01:33.695Z,65.67
2023-04-03T07:02:33.619Z,66.25
2023-04-03T07:03:34.531Z,66.22
2023-04-03T07:04:33.555Z,66.53
2023-04-03T07:05:33.496Z,65.20
2023-04-03T07:06:33.457Z,65.74
2023-04-03T07:07:33.409Z,66.28
2023-04-03T07:08:33.372Z,66.39
2023-04-03T07:09:33.341Z,66.56
2023-04-03T07:10:33.456Z,65.92
2023-04-03T07:11:33.270Z,65.27
2023-04-03T07:12:33.218Z,65.17
2023-04-03T07:13:33.183Z,65.00
2023-04-03T07:14:33.142Z,65.64
2023-04-03T07:15:33.120Z,66.16
2023-04-03T07:16:33.113Z,64.89
2023-04-03T07:17:33.082Z,65.61
2023-04-03T07:18:32.988Z,65.81
2023-04-03T07:19:32.968Z,66.22
2023-04-03T07:20:32.916Z,65.41
2023-04-03T07:21:32.877Z,67.05
2023-04-03T07:22:32.845Z,65.27
2023-04-03T07:23:33.013Z,65.80
2023-04-03T07:24:32.777Z,66.76
2023-04-03T07:25:32.751Z,67.35
2023-04-03T07:26:32.707Z,66.42
2023-04-03T07:27:32.660Z,67.76
2023-04-03T07:28:32.607Z,67.35
2023-04-03T07:29:32.573Z,67.07
2023-04-03T07:30:32.551Z,67.71
2023-04-03T07:31:32.588Z,67.65
2023-04-03T07:32:32.479Z,68.02
2023-04-03T07:33:32.425Z,68.34
2023-04-03T07:34:32.390Z,66.16
2023-04-03T07:35:32.356Z,65.19
2023-04-03T07:36:32.313Z,65.73
2023-04-03T07:37:32.276Z,68.08
2023-04-03T07:38:32.246Z,68.57
2023-04-03T07:39:32.197Z,67.41
2023-04-03T07:40:32.158Z,67.41
2023-04-03T07:41:32.135Z,66.45
2023-04-03T07:42:41.370Z,65.32
2023-04-03T07:43:32.082Z,66.61
2023-04-03T07:44:32.050Z,66.61
2023-04-03T07:45:32.028Z,66.61
2023-04-03T07:46:32.077Z,67.23
2023-04-03T07:47:31.964Z,66.82
2023-04-03T07:48:31.922Z,65.97
2023-04-03T07:49:34.810Z,65.28
2023-04-03T07:50:31.807Z,66.89
2023-04-03T07:51:31.759Z,65.45
2023-04-03T07:52:31.866Z,65.48
2023-04-03T07:53:31.677Z,66.07
2023-04-03T07:54:31.675Z,65.80
2023-04-03T07:55:32.488Z,64.20
2023-04-03T07:56:31.582Z,62.31
2023-04-03T07:57:31.624Z,63.57
2023-04-03T07:58:31.532Z,63.03
2023-04-03T07:59:31.462Z,64.47
2023-04-03T08:00:31.450Z,64.23
2023-04-03T08:01:31.382Z,63.51
2023-04-03T08:02:31.374Z,64.75
2023-04-03T08:03:31.460Z,62.31
2023-04-03T08:04:31.364Z,63.28
2023-04-03T08:05:31.255Z,61.33
2023-04-03T08:06:44.925Z,61.98
2023-04-03T08:07:31.156Z,62.98
2023-04-03T08:08:31.125Z,60.75
2023-04-03T08:09:31.112Z,61.08
2023-04-03T08:10:31.096Z,60.42
2023-04-03T08:11:31.082Z,62.65
2023-04-03T08:12:30.984Z,62.75
2023-04-03T08:13:30.972Z,60.98
2023-04-03T08:14:30.896Z,61.64
2023-04-03T08:15:30.855Z,60.58
2023-04-03T08:16:30.849Z,59.12
2023-04-03T08:17:30.837Z,57.64
2023-04-03T08:18:30.760Z,59.62
2023-04-03T08:19:30.723Z,60.49
2023-04-03T08:20:30.689Z,62.04
2023-04-03T08:21:30.652Z,62.18
2023-04-03T08:22:30.662Z,61.13
2023-04-03T08:23:30.582Z,60.51
2023-04-03T08:24:30.541Z,60.21
2023-04-03T08:25:30.514Z,59.05
2023-04-03T08:26:30.470Z,59.12
2023-04-03T08:27:30.427Z,57.89
2023-04-03T08:28:30.414Z,56.77
2023-04-03T08:29:30.962Z,57.92
2023-04-03T08:30:30.327Z,56.79
2023-04-03T08:31:30.275Z,57.51
2023-04-03T08:32:30.323Z,57.59
2023-04-03T08:33:30.237Z,55.82
2023-04-03T08:34:30.191Z,57.23
2023-04-03T08:35:30.390Z,55.77
2023-04-03T08:36:30.160Z,55.58
2023-04-03T08:37:30.787Z,55.90
2023-04-03T08:38:30.084Z,55.85
2023-04-03T08:39:30.003Z,55.56
2023-04-03T08:40:30.030Z,57.36
2023-04-03T08:41:29.936Z,57.98
2023-04-03T08:42:29.901Z,59.33
2023-04-03T08:43:29.941Z,55.72
2023-04-03T08:44:29.835Z,54.59
2023-04-03T08:45:29.833Z,55.10
2023-04-03T08:46:29.789Z,52.46
2023-04-03T08:47:29.765Z,55.26
2023-04-03T08:48:29.705Z,55.38
2023-04-03T08:49:29.696Z,55.46
2023-04-03T08:50:29.634Z,54.10
2023-04-03T08:51:29.599Z,52.77
2023-04-03T08:52:29.559Z,52.72
2023-04-03T08:53:29.554Z,53.44
2023-04-03T08:54:29.481Z,53.20
2023-04-03T08:55:29.439Z,54.46
2023-04-03T08:56:29.402Z,51.75
2023-04-03T08:57:29.413Z,53.85
2023-04-03T08:58:29.371Z,54.57
2023-04-03T08:59:29.371Z,53.13
2023-04-03T09:00:29.267Z,53.54
2023-04-03T09:01:29.265Z,52.80
2023-04-03T09:02:29.240Z,51.92
2023-04-03T09:03:29.170Z,54.92
2023-04-03T09:04:29.130Z,53.51
2023-04-03T09:05:29.116Z,52.64
2023-04-03T09:06:29.056Z,50.47
2023-04-03T09:07:29.038Z,50.14
2023-04-03T09:08:28.993Z,51.78
2023-04-03T09:09:28.957Z,50.73
2023-04-03T09:10:28.952Z,49.08
2023-04-03T09:11:28.877Z,52.95
2023-04-03T09:12:28.858Z,52.39
2023-04-03T09:13:28.829Z,51.10
2023-04-03T09:14:28.777Z,50.39
2023-04-03T09:15:38.508Z,50.82
2023-04-03T09:16:28.765Z,51.75
2023-04-03T09:17:28.681Z,51.95
2023-04-03T09:18:28.630Z,51.01
2023-04-03T09:19:28.588Z,50.67
2023-04-03T09:20:28.550Z,50.75
2023-04-03T09:21:28.520Z,51.12
2023-04-03T09:22:29.094Z,49.55
2023-04-03T09:23:28.461Z,47.53
2023-04-03T09:24:28.436Z,48.81
2023-04-03T09:25:29.253Z,48.63
2023-04-03T09:26:28.370Z,50.45
2023-04-03T09:27:28.348Z,48.07
2023-04-03T09:28:29.291Z,49.04
2023-04-03T09:29:28.249Z,47.19
2023-04-03T09:30:28.207Z,48.32
2023-04-03T09:31:28.313Z,48.73
2023-04-03T09:32:28.190Z,48.55
2023-04-03T09:33:28.145Z,47.50
2023-04-03T09:34:28.106Z,47.17
2023-04-03T09:35:36.372Z,47.48
2023-04-03T09:36:28.028Z,46.58
2023-04-03T09:37:27.998Z,48.34
2023-04-03T09:38:27.965Z,48.55
2023-04-03T09:39:27.913Z,49.34
2023-04-03T09:40:27.910Z,48.57
2023-04-03T09:41:27.845Z,49.00
2023-04-03T09:42:27.801Z,49.57
2023-04-03T09:43:27.799Z,49.06
2023-04-03T09:44:27.731Z,48.26
2023-04-03T09:45:27.696Z,49.29
2023-04-03T09:46:27.798Z,50.31
2023-04-03T09:47:27.746Z,50.10
2023-04-03T09:48:27.708Z,52.00
2023-04-03T09:49:27.594Z,51.24
2023-04-03T09:50:27.538Z,49.35
2023-04-03T09:51:27.484Z,47.41
2023-04-03T09:52:27.472Z,49.05
2023-04-03T09:53:27.428Z,49.48
2023-04-03T09:54:27.389Z,48.99
2023-04-03T09:55:27.374Z,48.68
2023-04-03T09:56:27.351Z,51.26
2023-04-03T09:57:27.369Z,51.21
2023-04-03T09:58:29.610Z,49.02
2023-04-03T09:59:27.217Z,49.05
2023-04-03T10:00:27.177Z,48.66
2023-04-03T10:01:27.257Z,49.17
2023-04-03T10:02:27.146Z,49.22
2023-04-03T10:03:27.737Z,49.62
2023-04-03T10:04:27.062Z,48.36
2023-04-03T10:05:27.040Z,48.06
2023-04-03T10:06:26.990Z,48.03
2023-04-03T10:07:26.947Z,48.36
2023-04-03T10:08:26.930Z,48.55
2023-04-03T10:09:26.873Z,48.52
2023-04-03T10:10:26.933Z,47.50
2023-04-03T10:11:26.792Z,48.00
2023-04-03T10:12:26.768Z,48.86
2023-04-03T10:13:26.763Z,49.65
2023-04-03T10:14:26.721Z,49.30
2023-04-03T10:15:26.668Z,49.40
2023-04-03T10:16:26.652Z,49.96
2023-04-03T10:17:26.671Z,51.29
2023-04-03T10:18:26.612Z,51.50
2023-04-03T10:19:26.602Z,52.39
2023-04-03T10:20:26.491Z,52.55
2023-04-03T10:21:27.755Z,51.73
2023-04-03T10:22:26.444Z,51.12
2023-04-03T10:23:26.406Z,48.86
2023-04-03T10:24:26.375Z,49.81
2023-04-03T10:25:26.362Z,51.95
2023-04-03T10:26:26.302Z,52.44
2023-04-03T10:27:26.251Z,49.99
2023-04-03T10:28:26.236Z,50.68
2023-04-03T10:29:26.182Z,50.37
2023-04-03T10:30:26.166Z,49.66
2023-04-03T10:31:26.137Z,48.38
2023-04-03T10:32:26.111Z,49.73
2023-04-03T10:33:26.050Z,50.88
2023-04-03T10:34:26.012Z,50.78
2023-04-03T10:35:26.054Z,51.08
2023-04-03T10:36:25.970Z,51.50
2023-04-03T10:37:25.914Z,51.26
2023-04-03T10:38:25.882Z,51.24
2023-04-03T10:39:25.849Z,51.62
2023-04-03T10:40:25.827Z,51.48
2023-04-03T10:41:25.778Z,48.36
2023-04-03T10:42:25.769Z,48.26
2023-04-03T10:43:25.716Z,46.10
2023-04-03T10:44:25.669Z,47.75
2023-04-03T10:45:25.634Z,46.73
2023-04-03T10:46:25.643Z,48.26
2023-04-03T10:47:25.614Z,47.16
2023-04-03T10:48:25.545Z,46.43
2023-04-03T10:49:25.492Z,46.63
2023-04-03T10:50:25.470Z,46.16
2023-04-03T10:51:25.546Z,46.14
2023-04-03T10:52:25.414Z,45.47
2023-04-03T10:53:25.369Z,46.92
2023-04-03T10:54:25.370Z,47.64
2023-04-03T10:55:25.302Z,48.71
2023-04-03T10:56:25.286Z,49.35
2023-04-03T10:57:25.273Z,50.02
2023-04-03T10:58:25.232Z,49.57
2023-04-03T10:59:25.177Z,48.83
2023-04-03T11:00:25.139Z,47.89
2023-04-03T11:01:25.173Z,49.40
2023-04-03T11:02:25.197Z,48.34
2023-04-03T11:03:25.125Z,47.02
2023-04-03T11:04:24.995Z,46.61
2023-04-03T11:05:24.977Z,46.08
2023-04-03T11:06:24.955Z,42.39
2023-04-03T11:07:24.994Z,42.02
2023-04-03T11:08:24.921Z,42.06
2023-04-03T11:09:24.824Z,42.79
2023-04-03T11:10:24.801Z,38.93
2023-04-03T11:11:24.767Z,39.89
2023-04-03T11:12:24.745Z,39.03
2023-04-03T11:13:24.697Z,38.91
2023-04-03T11:14:24.684Z,38.95
2023-04-03T11:15:24.637Z,39.03
2023-04-03T11:16:24.764Z,37.91
2023-04-03T11:17:24.554Z,38.23
2023-04-03T11:18:24.528Z,40.79
2023-04-03T11:19:24.500Z,40.16
2023-04-03T11:20:24.458Z,39.34
2023-04-03T11:21:24.421Z,39.54
2023-04-03T11:22:24.419Z,40.28
2023-04-03T11:23:25.515Z,38.44
2023-04-03T11:24:24.321Z,39.26
2023-04-03T11:25:24.307Z,39.07
2023-04-03T11:26:24.260Z,40.69
2023-04-03T11:27:24.227Z,40.77
2023-04-03T11:28:24.184Z,40.71
2023-04-03T11:29:34.304Z,40.06
2023-04-03T11:30:24.118Z,38.45
2023-04-03T11:31:24.129Z,38.09
2023-04-03T11:32:24.052Z,38.54
2023-04-03T11:33:24.014Z,39.87
2023-04-03T11:34:23.999Z,39.05
2023-04-03T11:35:23.943Z,38.21
2023-04-03T11:36:26.096Z,37.74
2023-04-03T11:37:23.890Z,39.07
2023-04-03T11:38:23.870Z,38.66
2023-04-03T11:39:23.892Z,40.69
2023-04-03T11:40:23.792Z,38.60
2023-04-03T11:41:23.740Z,38.83
2023-04-03T11:42:23.731Z,37.91
2023-04-03T11:43:23.675Z,38.13
2023-04-03T11:44:23.656Z,38.06
2023-04-03T11:45:23.727Z,38.06
2023-04-03T11:46:23.631Z,38.57
2023-04-03T11:47:23.567Z,41.11
2023-04-03T11:48:25.151Z,40.58
2023-04-03T11:49:23.480Z,40.75
2023-04-03T11:50:23.433Z,40.92
2023-04-03T11:51:23.399Z,39.86
2023-04-03T11:52:23.369Z,38.55
2023-04-03T11:53:23.330Z,37.18
2023-04-03T11:54:25.066Z,38.01
2023-04-03T11:55:23.339Z,38.30
2023-04-03T11:56:23.232Z,39.34
2023-04-03T11:57:23.233Z,39.95
2023-04-03T11:58:23.158Z,38.71
2023-04-03T11:59:23.126Z,39.53
2023-04-03T12:00:23.106Z,40.26
2023-04-03T12:01:23.072Z,40.34
2023-04-03T12:02:23.070Z,41.77
2023-04-03T12:03:23.054Z,41.44
2023-04-03T12:04:23.044Z,41.67
2023-04-03T12:05:22.917Z,37.68
2023-04-03T12:06:22.918Z,39.83
2023-04-03T12:07:22.855Z,40.83
2023-04-03T12:08:22.833Z,38.62
2023-04-03T12:09:22.822Z,39.24
2023-04-03T12:10:31.625Z,39.01
2023-04-03T12:11:22.797Z,42.00
2023-04-03T12:12:22.713Z,45.37
2023-04-03T12:13:22.651Z,45.37
2023-04-03T12:14:22.910Z,45.06
2023-04-03T12:15:22.584Z,45.80
2023-04-03T12:16:22.591Z,45.70
2023-04-03T12:17:22.518Z,44.31
2023-04-03T12:18:22.511Z,44.49
2023-04-03T12:19:26.609Z,44.47
2023-04-03T12:20:22.428Z,44.12
2023-04-03T12:21:22.437Z,42.79
2023-04-03T12:22:22.351Z,42.81
2023-04-03T12:23:22.318Z,42.61
2023-04-03T12:24:22.292Z,42.55
2023-04-03T12:25:22.246Z,44.20
2023-04-03T12:26:22.214Z,44.41
2023-04-03T12:27:22.194Z,45.12
2023-04-03T12:28:22.147Z,46.04
2023-04-03T12:29:22.133Z,46.74
2023-04-03T12:30:22.079Z,45.12
2023-04-03T12:31:22.100Z,45.86
2023-04-03T12:32:22.024Z,44.68
2023-04-03T12:33:22.014Z,44.47
2023-04-03T12:34:21.949Z,45.00
2023-04-03T12:35:21.926Z,44.70
2023-04-03T12:36:21.897Z,46.01
2023-04-03T12:37:21.859Z,46.23
2023-04-03T12:38:21.816Z,45.83
2023-04-03T12:39:21.794Z,46.13
2023-04-03T12:40:21.739Z,45.83
2023-04-03T12:41:21.713Z,46.13
2023-04-03T12:42:21.666Z,46.75
2023-04-03T12:43:21.732Z,45.83
2023-04-03T12:44:21.608Z,46.01
2023-04-03T12:45:21.589Z,45.80
2023-04-03T12:46:21.614Z,46.30
2023-04-03T12:47:21.500Z,45.78
2023-04-03T12:48:21.461Z,46.31
2023-04-03T12:49:21.430Z,45.50
2023-04-03T12:50:21.385Z,46.70
2023-04-03T12:51:21.372Z,45.57
2023-04-03T12:52:21.312Z,44.88
2023-04-03T12:53:21.294Z,45.80
2023-04-03T12:54:21.230Z,46.31